Asteria — WDE5489 — position and weather

sailwx.info

Track history (hours):
 
Tides and Currents Weather Stations Pressure Air Temp Water Temp Dewpoint Dewpoint Depression Visibility Wind Speed Wind Dir Waves Ship Positions

Asteria

Owner: Boston HarborCruises, Boston, MA. More information available from US FCC via Universal Licensing System and Coast Guard Vessel Documentation Center.

Last reported at 2016-Apr-29 17:33 UTC. Time now 2016-Apr-30 05:12 UTC.
Position N 42°23' W 071°03'.

Length 33 m; draft 2 m.

Type: High speed craft. MMSI: 367367470.

Date/timePositionNaut miles runAvg speedWind from/ knotsBaromVisibWave heightAir tempDewpointWater temp
2016-Apr-29 17:33N 42°23' W 071°03'0 0.0
2016-Apr-29 16:33N 42°23' W 071°03'0 0.0
2016-Apr-29 15:33N 42°23' W 071°03'0 0.3
2016-Apr-29 14:33N 42°23' W 071°03'0 0.1
2016-Apr-29 13:33N 42°23' W 071°03'0 0.0
2016-Apr-28 16:33N 42°23' W 071°03'0 0.0
2016-Apr-28 15:33N 42°23' W 071°03'0 0.0
2016-Apr-28 14:33N 42°23' W 071°03'0 0.0
2016-Apr-28 13:33N 42°23' W 071°03'1 0.0
2016-Apr-26 20:33N 42°22' W 071°03'9 8.6
2016-Apr-26 19:34N 42°16' W 070°55'0 0.0
2016-Apr-26 17:33N 42°16' W 070°55'5 5.3
2016-Apr-26 16:34N 42°20' W 070°60'4 2.9
2016-Apr-26 15:17N 42°23' W 071°03'0 0.0
2016-Apr-26 14:31N 42°23' W 071°03'  
2016-Apr-19 18:33N 42°23' W 071°03'0 0.0
2016-Apr-19 17:33N 42°23' W 071°03'  
Track history (hours):
 
Tides and Currents Weather Stations Pressure Air Temp Water Temp Dewpoint Dewpoint Depression Visibility Wind Speed Wind Dir Waves Ship Positions

Asteria

Owner: Boston HarborCruises, Boston, MA. More information available from US FCC via Universal Licensing System and Coast Guard Vessel Documentation Center.

Last reported at 2016-Apr-29 17:33 UTC. Time now 2016-Apr-30 05:12 UTC.
Position N 42°23' W 071°03'.

Length 33 m; draft 2 m.

Type: High speed craft. MMSI: 367367470.

Date/timePositionNaut miles runAvg speedWind from/ knotsBaromVisibWave heightAir tempDewpointWater temp
2016-Apr-29 17:33N 42°23' W 071°03'0 0.0
2016-Apr-29 16:33N 42°23' W 071°03'0 0.0
2016-Apr-29 15:33N 42°23' W 071°03'0 0.3
2016-Apr-29 14:33N 42°23' W 071°03'0 0.1
2016-Apr-29 13:33N 42°23' W 071°03'0 0.0
2016-Apr-28 16:33N 42°23' W 071°03'0 0.0
2016-Apr-28 15:33N 42°23' W 071°03'0 0.0
2016-Apr-28 14:33N 42°23' W 071°03'0 0.0
2016-Apr-28 13:33N 42°23' W 071°03'1 0.0
2016-Apr-26 20:33N 42°22' W 071°03'9 8.6
2016-Apr-26 19:34N 42°16' W 070°55'0 0.0
2016-Apr-26 17:33N 42°16' W 070°55'5 5.3
2016-Apr-26 16:34N 42°20' W 070°60'4 2.9
2016-Apr-26 15:17N 42°23' W 071°03'0 0.0
2016-Apr-26 14:31N 42°23' W 071°03'  
2016-Apr-19 18:33N 42°23' W 071°03'0 0.0
2016-Apr-19 17:33N 42°23' W 071°03'  

Dump ship's entire track history